Time;durP1;ratioP1;P1;durP2;ratioP2;P2;SDS_P1;SDS_P2;PMS_P1;PMS_P2;Temp;Humidity;BMP_temperature;BMP_pressure;BME280_temperature;BME280_humidity;BME280_pressure;Samples;Min_cycle;Max_cycle;Signal;HPM_P1;HPM_P2
2024/03/06 00:01:06;;;;;;;7.90;7.10;;;;;;;;;;5011931;28;20614;-51
2024/03/06 00:03:33;;;;;;;9.50;7.63;;;;;;;;;;5019263;28;20186;-51
2024/03/06 00:05:59;;;;;;;8.10;7.30;;;;;;;;;;5018651;28;20301;-50
2024/03/06 00:08:25;;;;;;;8.10;7.30;;;;;;;;;;5015526;28;20587;-51
2024/03/06 00:10:51;;;;;;;8.37;7.47;;;;;;;;;;5017765;28;20182;-51
2024/03/06 00:13:17;;;;;;;6.90;6.23;;;;;;;;;;5021767;28;20232;-50
2024/03/06 00:15:43;;;;;;;7.70;6.90;;;;;;;;;;5016323;28;20174;-52
2024/03/06 00:18:10;;;;;;;8.60;7.47;;;;;;;;;;5018224;28;20646;-51
2024/03/06 00:20:36;;;;;;;9.00;7.33;;;;;;;;;;5021750;28;20229;-51
2024/03/06 00:23:02;;;;;;;9.57;7.30;;;;;;;;;;5029169;28;20193;-52
2024/03/06 00:25:28;;;;;;;9.03;7.53;;;;;;;;;;5024038;28;20618;-51
2024/03/06 00:27:54;;;;;;;8.43;7.53;;;;;;;;;;5028845;28;20304;-50
2024/03/06 00:30:20;;;;;;;8.63;7.50;;;;;;;;;;5024495;28;20166;-50
2024/03/06 00:32:46;;;;;;;8.53;7.73;;;;;;;;;;5026101;28;20529;-51
2024/03/06 00:35:12;;;;;;;9.27;7.63;;;;;;;;;;5021105;28;20186;-53
2024/03/06 00:37:38;;;;;;;8.70;7.50;;;;;;;;;;5027743;28;20181;-52
2024/03/06 00:40:06;;;;;;;8.07;7.27;;;;;;;;;;5028789;28;20257;-50
2024/03/06 00:42:33;;;;;;;9.63;8.10;;;;;;;;;;5019158;28;20660;-50
2024/03/06 00:44:59;;;;;;;9.23;8.17;;;;;;;;;;5029899;28;20196;-51
2024/03/06 00:47:25;;;;;;;8.90;8.00;;;;;;;;;;5018090;28;20197;-52
2024/03/06 00:49:51;;;;;;;9.30;8.00;;;;;;;;;;5015016;28;20589;-52
2024/03/06 00:52:17;;;;;;;8.87;7.97;;;;;;;;;;5023678;28;20171;-51
2024/03/06 00:54:43;;;;;;;10.80;8.17;;;;;;;;;;5028235;28;20174;-52
2024/03/06 00:57:10;;;;;;;11.23;8.70;;;;;;;;;;5018039;28;20273;-51
2024/03/06 00:59:36;;;;;;;8.13;7.20;;;;;;;;;;5029150;28;20439;-52
2024/03/06 01:02:02;;;;;;;9.10;8.20;;;;;;;;;;5029632;28;20277;-50
2024/03/06 01:04:28;;;;;;;8.70;7.53;;;;;;;;;;5029594;28;20181;-53
2024/03/06 01:06:54;;;;;;;10.33;8.73;;;;;;;;;;5034538;28;20205;-50
2024/03/06 01:09:20;;;;;;;9.57;8.53;;;;;;;;;;5030864;28;20204;-50
2024/03/06 01:11:47;;;;;;;9.83;8.00;;;;;;;;;;5021679;28;20657;-50
2024/03/06 01:14:13;;;;;;;9.37;8.37;;;;;;;;;;5025581;28;20198;-51
2024/03/06 01:16:39;;;;;;;10.37;8.93;;;;;;;;;;5032835;28;20651;-52
2024/03/06 01:19:05;;;;;;;10.70;9.23;;;;;;;;;;5032502;28;20182;-52
2024/03/06 01:21:34;;;;;;;10.43;9.20;;;;;;;;;;5028770;28;20229;-50
2024/03/06 01:24:00;;;;;;;9.93;8.30;;;;;;;;;;5029046;28;20578;-50
2024/03/06 01:26:26;;;;;;;10.43;8.93;;;;;;;;;;5022971;28;20206;-51
2024/03/06 01:28:52;;;;;;;9.77;8.13;;;;;;;;;;5028755;28;20188;-50
2024/03/06 01:31:18;;;;;;;11.63;9.70;;;;;;;;;;5028141;28;20590;-53
2024/03/06 01:33:44;;;;;;;9.80;8.30;;;;;;;;;;5017485;28;20529;-52
2024/03/06 01:36:10;;;;;;;10.10;8.80;;;;;;;;;;5015116;28;20193;-51
2024/03/06 01:38:36;;;;;;;9.50;8.03;;;;;;;;;;5036571;28;20178;-51
2024/03/06 01:41:04;;;;;;;11.47;9.53;;;;;;;;;;5027477;28;20273;-51
2024/03/06 01:43:37;;;;;;;9.87;8.70;;;;;;;;;;5019827;28;20256;-53
2024/03/06 01:46:03;;;;;;;10.17;9.00;;;;;;;;;;5014963;28;20229;-52
2024/03/06 01:48:31;;;;;;;9.73;8.70;;;;;;;;;;5013854;28;20189;-52
2024/03/06 01:50:58;;;;;;;11.00;9.53;;;;;;;;;;5013693;28;20178;-50
2024/03/06 01:53:24;;;;;;;12.60;9.83;;;;;;;;;;5027123;28;20189;-54
2024/03/06 01:55:51;;;;;;;10.10;8.93;;;;;;;;;;5022136;28;20656;-52
2024/03/06 01:58:17;;;;;;;11.57;9.23;;;;;;;;;;5020304;28;20169;-51
2024/03/06 02:00:44;;;;;;;10.80;8.87;;;;;;;;;;5021387;28;20186;-51
2024/03/06 02:03:11;;;;;;;10.60;8.73;;;;;;;;;;5021558;28;20203;-51
2024/03/06 02:05:37;;;;;;;11.80;9.63;;;;;;;;;;5022211;28;20201;-50
2024/03/06 02:08:03;;;;;;;10.20;9.10;;;;;;;;;;5026165;28;20173;-51
2024/03/06 02:10:30;;;;;;;9.57;8.57;;;;;;;;;;5025954;28;20641;-52
2024/03/06 02:12:57;;;;;;;12.43;8.53;;;;;;;;;;5023421;28;20285;-50
2024/03/06 02:15:23;;;;;;;11.13;9.23;;;;;;;;;;5020211;28;20655;-51
2024/03/06 02:17:50;;;;;;;11.13;9.20;;;;;;;;;;5015546;28;20190;-51
2024/03/06 02:20:16;;;;;;;11.13;8.83;;;;;;;;;;5008827;28;20221;-54
2024/03/06 02:22:42;;;;;;;11.67;9.33;;;;;;;;;;5018008;28;20186;-53
2024/03/06 02:25:09;;;;;;;12.67;8.97;;;;;;;;;;5027538;28;20220;-53
2024/03/06 02:27:35;;;;;;;12.60;9.70;;;;;;;;;;5013456;28;20214;-53
2024/03/06 02:30:01;;;;;;;11.97;9.03;;;;;;;;;;5010218;28;20178;-53
2024/03/06 02:32:27;;;;;;;11.13;9.10;;;;;;;;;;5015222;28;20217;-54
2024/03/06 02:34:53;;;;;;;12.73;9.33;;;;;;;;;;5021064;28;20279;-53
2024/03/06 02:37:19;;;;;;;11.80;9.33;;;;;;;;;;5017354;28;20213;-54
2024/03/06 02:39:45;;;;;;;11.00;9.83;;;;;;;;;;5009912;28;20186;-53
2024/03/06 02:42:11;;;;;;;12.40;10.13;;;;;;;;;;5009897;28;20584;-53
2024/03/06 02:44:37;;;;;;;12.87;10.07;;;;;;;;;;5013935;28;20657;-53
2024/03/06 02:47:04;;;;;;;11.47;9.50;;;;;;;;;;5014754;28;20205;-54
2024/03/06 02:49:30;;;;;;;13.27;10.90;;;;;;;;;;5015486;28;20212;-54
2024/03/06 02:51:56;;;;;;;11.03;9.00;;;;;;;;;;5009946;28;20208;-53
2024/03/06 02:54:23;;;;;;;12.03;9.83;;;;;;;;;;5018964;28;20188;-53
2024/03/06 02:56:52;;;;;;;13.00;10.17;;;;;;;;;;5011735;28;20189;-53
2024/03/06 02:59:18;;;;;;;11.17;9.20;;;;;;;;;;5017369;28;20313;-53
2024/03/06 03:01:44;;;;;;;10.60;9.40;;;;;;;;;;5010909;28;20497;-53
2024/03/06 03:04:11;;;;;;;11.57;9.27;;;;;;;;;;5016472;28;20198;-54
2024/03/06 03:06:37;;;;;;;11.50;9.87;;;;;;;;;;5008448;28;20642;-53
2024/03/06 03:09:06;;;;;;;11.93;9.73;;;;;;;;;;5018984;28;20167;-54
2024/03/06 03:11:32;;;;;;;11.67;9.80;;;;;;;;;;5014233;28;20220;-53
2024/03/06 03:13:58;;;;;;;11.20;9.73;;;;;;;;;;5016663;28;20703;-53
2024/03/06 03:16:24;;;;;;;10.63;9.50;;;;;;;;;;5017881;28;20205;-53
2024/03/06 03:18:50;;;;;;;12.97;9.00;;;;;;;;;;5017789;28;20186;-54
2024/03/06 03:21:16;;;;;;;12.57;9.87;;;;;;;;;;5024713;28;20224;-53
2024/03/06 03:23:42;;;;;;;10.83;8.77;;;;;;;;;;5025235;28;20484;-53
2024/03/06 03:26:12;;;;;;;10.17;8.87;;;;;;;;;;5023926;28;20296;-53
2024/03/06 03:28:39;;;;;;;10.43;8.60;;;;;;;;;;5014665;28;20697;-53
2024/03/06 03:31:06;;;;;;;12.20;9.57;;;;;;;;;;5021027;28;20504;-55
2024/03/06 03:33:32;;;;;;;9.80;8.30;;;;;;;;;;5024627;28;20273;-55
2024/03/06 03:35:58;;;;;;;12.50;9.00;;;;;;;;;;5009312;28;20262;-56
2024/03/06 03:38:24;;;;;;;10.67;9.30;;;;;;;;;;5019968;28;20319;-55
2024/03/06 03:40:50;;;;;;;9.47;8.30;;;;;;;;;;5026373;28;20848;-56
2024/03/06 03:43:17;;;;;;;10.37;9.00;;;;;;;;;;5019210;28;20674;-56
2024/03/06 03:45:43;;;;;;;11.13;9.10;;;;;;;;;;5011068;28;20216;-55
2024/03/06 03:48:09;;;;;;;9.57;8.23;;;;;;;;;;5018237;28;20163;-55
2024/03/06 03:50:35;;;;;;;9.87;8.33;;;;;;;;;;5015182;28;20385;-55
2024/03/06 03:53:01;;;;;;;8.93;8.03;;;;;;;;;;5019330;28;20182;-54
2024/03/06 03:55:27;;;;;;;10.20;7.90;;;;;;;;;;5024336;28;20185;-56
2024/03/06 03:57:53;;;;;;;9.80;8.03;;;;;;;;;;5020224;28;20501;-56
2024/03/06 04:00:20;;;;;;;11.20;9.27;;;;;;;;;;5025765;28;20187;-56
2024/03/06 04:02:46;;;;;;;10.13;8.30;;;;;;;;;;5018886;28;20701;-55
2024/03/06 04:05:12;;;;;;;10.40;8.83;;;;;;;;;;5013672;28;20677;-55
2024/03/06 04:07:39;;;;;;;11.27;9.43;;;;;;;;;;5016588;28;20198;-56
2024/03/06 04:10:05;;;;;;;11.20;8.93;;;;;;;;;;5013588;28;20197;-56
2024/03/06 04:12:31;;;;;;;9.90;8.37;;;;;;;;;;5015766;28;20182;-55
2024/03/06 04:14:57;;;;;;;10.40;8.03;;;;;;;;;;5013484;28;20282;-55
2024/03/06 04:17:25;;;;;;;14.63;9.20;;;;;;;;;;5016429;28;20189;-56
2024/03/06 04:19:53;;;;;;;9.43;7.93;;;;;;;;;;5008419;28;21010;-55
2024/03/06 04:22:22;;;;;;;11.97;8.77;;;;;;;;;;5012257;28;20420;-56
2024/03/06 04:24:48;;;;;;;11.67;8.40;;;;;;;;;;5022596;28;20627;-56
2024/03/06 04:27:15;;;;;;;9.27;7.77;;;;;;;;;;5017600;28;20213;-55
2024/03/06 04:29:41;;;;;;;10.77;8.47;;;;;;;;;;5016518;28;20186;-56
2024/03/06 04:32:07;;;;;;;9.73;8.33;;;;;;;;;;5011101;28;20209;-56
2024/03/06 04:34:34;;;;;;;9.70;7.83;;;;;;;;;;5022382;28;20256;-56
2024/03/06 04:37:01;;;;;;;9.53;8.07;;;;;;;;;;5016908;28;20323;-56
2024/03/06 04:39:27;;;;;;;9.40;8.37;;;;;;;;;;5029534;28;20701;-55
2024/03/06 04:41:53;;;;;;;11.00;8.87;;;;;;;;;;5020391;28;20281;-54
2024/03/06 04:44:19;;;;;;;9.40;8.30;;;;;;;;;;5028292;28;20621;-54
2024/03/06 04:46:45;;;;;;;10.17;9.00;;;;;;;;;;5018579;28;20543;-53
2024/03/06 04:49:11;;;;;;;10.23;8.27;;;;;;;;;;5030477;28;20174;-53
2024/03/06 04:51:37;;;;;;;9.50;8.13;;;;;;;;;;5019995;28;20176;-53
2024/03/06 04:54:03;;;;;;;9.17;8.27;;;;;;;;;;5028656;28;20220;-54
2024/03/06 04:56:29;;;;;;;9.20;7.90;;;;;;;;;;5017877;28;20341;-54
2024/03/06 04:58:55;;;;;;;10.13;8.03;;;;;;;;;;5029204;28;20648;-54
2024/03/06 05:01:22;;;;;;;9.23;8.20;;;;;;;;;;5022636;28;20239;-53
2024/03/06 05:03:49;;;;;;;9.07;8.17;;;;;;;;;;5026947;28;20190;-53
2024/03/06 05:06:15;;;;;;;9.20;8.20;;;;;;;;;;5013988;28;20197;-54
2024/03/06 05:08:41;;;;;;;10.40;8.90;;;;;;;;;;5028464;28;20348;-53
2024/03/06 05:11:07;;;;;;;9.30;8.00;;;;;;;;;;5025671;28;20178;-53
2024/03/06 05:13:33;;;;;;;9.83;7.83;;;;;;;;;;5018023;28;20304;-54
2024/03/06 05:15:59;;;;;;;11.50;8.17;;;;;;;;;;5025805;28;20185;-53
2024/03/06 05:18:25;;;;;;;9.97;7.67;;;;;;;;;;5022940;28;20193;-53
2024/03/06 05:20:51;;;;;;;8.87;7.70;;;;;;;;;;5011019;28;20777;-54
2024/03/06 05:23:17;;;;;;;10.77;8.23;;;;;;;;;;5019300;28;20183;-53
2024/03/06 05:25:44;;;;;;;9.87;8.53;;;;;;;;;;5019412;28;20359;-54
2024/03/06 05:28:10;;;;;;;9.93;7.90;;;;;;;;;;5029334;28;20188;-54
2024/03/06 05:30:36;;;;;;;9.97;8.57;;;;;;;;;;5020643;28;20544;-53
2024/03/06 05:33:02;;;;;;;11.40;8.07;;;;;;;;;;5026803;28;20634;-53
2024/03/06 05:35:29;;;;;;;8.37;7.40;;;;;;;;;;5012894;28;20671;-54
2024/03/06 05:37:55;;;;;;;10.55;8.60;;;;;;;;;;5028962;28;20185;-54
2024/03/06 05:40:21;;;;;;;10.10;8.17;;;;;;;;;;5023612;28;20603;-54
2024/03/06 05:42:47;;;;;;;10.10;8.17;;;;;;;;;;5012275;28;20543;-54
2024/03/06 05:45:13;;;;;;;10.53;8.33;;;;;;;;;;5015708;28;20194;-53
2024/03/06 05:47:39;;;;;;;11.20;9.13;;;;;;;;;;5027259;28;20209;-54
2024/03/06 05:50:10;;;;;;;9.10;7.73;;;;;;;;;;5029378;28;20228;-54
2024/03/06 05:52:36;;;;;;;11.10;8.70;;;;;;;;;;5027137;28;20277;-53
2024/03/06 05:55:03;;;;;;;10.10;8.67;;;;;;;;;;5023663;28;20511;-53
2024/03/06 05:57:29;;;;;;;12.40;8.53;;;;;;;;;;5016084;28;20576;-53
2024/03/06 05:59:56;;;;;;;8.93;7.80;;;;;;;;;;5014143;28;20182;-53
2024/03/06 06:02:23;;;;;;;8.70;7.60;;;;;;;;;;5016542;28;20217;-53
2024/03/06 06:04:49;;;;;;;9.90;8.33;;;;;;;;;;5024217;28;20629;-53
2024/03/06 06:07:15;;;;;;;10.33;7.87;;;;;;;;;;5028009;28;20202;-53
2024/03/06 06:09:42;;;;;;;9.70;7.70;;;;;;;;;;5015289;28;20177;-53
2024/03/06 06:12:08;;;;;;;12.80;9.20;;;;;;;;;;5015320;28;20711;-53
2024/03/06 06:14:34;;;;;;;10.07;8.30;;;;;;;;;;5022891;28;20290;-53
2024/03/06 06:17:00;;;;;;;9.63;7.90;;;;;;;;;;5017836;28;20626;-53
2024/03/06 06:19:26;;;;;;;12.07;9.27;;;;;;;;;;5026008;28;20202;-53
2024/03/06 06:21:55;;;;;;;10.77;8.67;;;;;;;;;;5011615;28;20229;-53
2024/03/06 06:24:21;;;;;;;9.73;8.00;;;;;;;;;;5009798;28;20174;-53
2024/03/06 06:26:47;;;;;;;11.07;8.67;;;;;;;;;;5013732;28;20640;-53
2024/03/06 06:29:13;;;;;;;9.47;8.10;;;;;;;;;;5025147;28;20188;-53
2024/03/06 06:31:39;;;;;;;10.73;7.97;;;;;;;;;;5025529;28;20221;-53
2024/03/06 06:34:06;;;;;;;11.53;8.43;;;;;;;;;;5027277;28;20189;-53
2024/03/06 06:36:32;;;;;;;12.03;8.07;;;;;;;;;;5022604;28;20186;-54
2024/03/06 06:38:58;;;;;;;9.90;7.90;;;;;;;;;;5037590;28;20534;-53
2024/03/06 06:41:24;;;;;;;9.73;8.37;;;;;;;;;;5011630;28;20653;-54
2024/03/06 06:43:54;;;;;;;10.40;8.37;;;;;;;;;;5023913;28;20556;-54
2024/03/06 06:46:21;;;;;;;10.47;8.20;;;;;;;;;;5024254;28;20701;-54
2024/03/06 06:48:48;;;;;;;10.00;8.20;;;;;;;;;;5028029;28;20573;-53
2024/03/06 06:51:16;;;;;;;11.87;9.30;;;;;;;;;;5012942;28;20586;-53
2024/03/06 06:53:42;;;;;;;11.13;8.67;;;;;;;;;;5013454;28;20496;-51
2024/03/06 06:56:08;;;;;;;8.40;7.20;;;;;;;;;;5027277;28;20780;-52
2024/03/06 06:58:34;;;;;;;10.97;8.70;;;;;;;;;;5020271;28;20169;-50
2024/03/06 07:01:00;;;;;;;13.53;9.10;;;;;;;;;;5021329;28;20651;-51
2024/03/06 07:03:29;;;;;;;11.93;9.50;;;;;;;;;;5021410;28;20257;-54
2024/03/06 07:05:56;;;;;;;12.00;9.03;;;;;;;;;;5023395;28;20206;-51
2024/03/06 07:08:22;;;;;;;10.00;8.80;;;;;;;;;;5012978;28;20209;-51
2024/03/06 07:10:49;;;;;;;12.00;9.57;;;;;;;;;;5022883;28;20316;-51
2024/03/06 07:13:15;;;;;;;12.20;9.80;;;;;;;;;;5018972;28;20174;-51
2024/03/06 07:15:41;;;;;;;13.47;9.70;;;;;;;;;;5015723;28;20645;-51
2024/03/06 07:18:07;;;;;;;15.40;9.63;;;;;;;;;;5010365;28;20260;-51
2024/03/06 07:20:33;;;;;;;12.70;9.47;;;;;;;;;;5011594;28;20563;-50
2024/03/06 07:22:59;;;;;;;10.53;8.47;;;;;;;;;;5018583;28;20173;-52
2024/03/06 07:25:25;;;;;;;11.73;9.17;;;;;;;;;;5012949;28;20540;-51
2024/03/06 07:27:52;;;;;;;11.50;9.27;;;;;;;;;;5023816;28;20209;-51
2024/03/06 07:30:18;;;;;;;12.07;8.93;;;;;;;;;;5020759;28;20221;-51
2024/03/06 07:32:44;;;;;;;11.23;9.03;;;;;;;;;;5017403;28;20659;-51
2024/03/06 07:35:12;;;;;;;11.27;9.10;;;;;;;;;;5009011;28;20206;-51
2024/03/06 07:37:38;;;;;;;11.83;8.50;;;;;;;;;;5013365;28;20680;-50
2024/03/06 07:40:04;;;;;;;12.20;10.37;;;;;;;;;;5007276;28;20316;-51
2024/03/06 07:42:31;;;;;;;12.67;9.83;;;;;;;;;;5015337;28;20719;-50
2024/03/06 07:44:57;;;;;;;11.13;8.93;;;;;;;;;;5024004;28;20198;-50
2024/03/06 07:47:23;;;;;;;12.53;8.97;;;;;;;;;;5010988;28;20202;-51
2024/03/06 07:49:50;;;;;;;10.77;9.47;;;;;;;;;;5011041;28;20669;-51
2024/03/06 07:52:16;;;;;;;11.87;9.33;;;;;;;;;;5016130;28;20174;-51
2024/03/06 07:54:42;;;;;;;11.50;8.77;;;;;;;;;;5026208;28;20170;-51
2024/03/06 07:57:09;;;;;;;12.57;9.73;;;;;;;;;;5014042;28;20829;-50
2024/03/06 07:59:35;;;;;;;10.33;8.57;;;;;;;;;;5023983;28;20301;-51
2024/03/06 08:02:01;;;;;;;12.50;9.50;;;;;;;;;;5017602;28;20313;-51
2024/03/06 08:04:27;;;;;;;14.40;10.23;;;;;;;;;;5030031;28;20280;-51
2024/03/06 08:06:53;;;;;;;11.90;9.90;;;;;;;;;;5017080;28;20651;-52
2024/03/06 08:09:19;;;;;;;10.50;8.73;;;;;;;;;;5024766;28;20177;-51
2024/03/06 08:11:46;;;;;;;13.87;10.73;;;;;;;;;;5012435;28;20182;-51
2024/03/06 08:14:14;;;;;;;13.73;11.30;;;;;;;;;;5024445;28;20196;-51
2024/03/06 08:16:40;;;;;;;15.47;11.40;;;;;;;;;;5024137;28;20571;-51
2024/03/06 08:19:06;;;;;;;13.77;11.10;;;;;;;;;;5022392;28;20169;-52
2024/03/06 08:21:32;;;;;;;15.07;11.07;;;;;;;;;;5015179;28;20222;-51
2024/03/06 08:23:58;;;;;;;16.93;12.00;;;;;;;;;;5028495;28;20271;-53
2024/03/06 08:26:24;;;;;;;13.93;11.03;;;;;;;;;;5021627;28;20228;-52
2024/03/06 08:28:51;;;;;;;15.03;12.00;;;;;;;;;;5022405;28;20555;-52
2024/03/06 08:31:17;;;;;;;17.10;12.40;;;;;;;;;;5023081;28;20678;-52
2024/03/06 08:33:44;;;;;;;17.80;12.47;;;;;;;;;;5015852;28;20214;-51
2024/03/06 08:36:10;;;;;;;20.97;14.37;;;;;;;;;;5020360;28;20757;-51
2024/03/06 08:38:36;;;;;;;19.67;13.70;;;;;;;;;;5023151;28;20668;-51
2024/03/06 08:41:02;;;;;;;20.53;13.73;;;;;;;;;;5021328;28;20170;-51
2024/03/06 08:43:28;;;;;;;19.93;14.33;;;;;;;;;;5026571;28;20219;-51
2024/03/06 08:45:54;;;;;;;17.73;13.00;;;;;;;;;;5030565;28;20190;-50
2024/03/06 08:48:21;;;;;;;21.13;14.23;;;;;;;;;;5021849;28;20550;-53
2024/03/06 08:50:47;;;;;;;19.77;14.83;;;;;;;;;;5010255;28;20588;-51
2024/03/06 08:53:14;;;;;;;23.43;15.70;;;;;;;;;;5018018;28;20224;-50
2024/03/06 08:55:40;;;;;;;25.83;16.83;;;;;;;;;;5022683;28;20640;-50
2024/03/06 08:58:08;;;;;;;26.20;17.67;;;;;;;;;;5019078;28;20653;-52
2024/03/06 09:00:34;;;;;;;25.87;16.80;;;;;;;;;;5011803;28;20711;-51
2024/03/06 09:03:00;;;;;;;24.47;17.30;;;;;;;;;;5029575;28;20190;-51
2024/03/06 09:05:26;;;;;;;25.20;17.50;;;;;;;;;;5025213;28;20178;-51
2024/03/06 09:07:52;;;;;;;29.23;18.90;;;;;;;;;;5016280;28;20565;-52
2024/03/06 09:10:19;;;;;;;23.53;17.47;;;;;;;;;;5017590;28;20553;-52
2024/03/06 09:12:45;;;;;;;27.60;18.03;;;;;;;;;;5020038;28;20573;-53
2024/03/06 09:15:11;;;;;;;27.00;18.40;;;;;;;;;;5015503;28;20286;-54
2024/03/06 09:17:38;;;;;;;27.63;18.20;;;;;;;;;;5016657;28;20265;-53
2024/03/06 09:20:11;;;;;;;26.83;18.07;;;;;;;;;;5022946;28;20214;-54
2024/03/06 09:22:38;;;;;;;27.53;19.57;;;;;;;;;;5019050;28;20251;-53
2024/03/06 09:25:05;;;;;;;30.73;20.83;;;;;;;;;;5020735;28;20610;-54
2024/03/06 09:27:31;;;;;;;31.83;20.47;;;;;;;;;;5019740;28;20596;-54
2024/03/06 09:29:57;;;;;;;30.07;20.30;;;;;;;;;;5014905;28;20245;-54
2024/03/06 09:32:26;;;;;;;30.80;20.00;;;;;;;;;;5025971;28;20174;-53
2024/03/06 09:34:52;;;;;;;28.23;19.50;;;;;;;;;;5011216;28;20178;-54
2024/03/06 09:37:18;;;;;;;30.70;20.80;;;;;;;;;;5014457;28;20602;-53
2024/03/06 09:39:47;;;;;;;32.10;22.00;;;;;;;;;;5015134;28;20221;-53
2024/03/06 09:42:13;;;;;;;32.17;20.33;;;;;;;;;;5017032;28;20209;-54
2024/03/06 09:44:39;;;;;;;31.77;21.20;;;;;;;;;;5028990;28;20178;-54
2024/03/06 09:47:07;;;;;;;28.97;20.60;;;;;;;;;;5012657;28;20637;-53
2024/03/06 09:49:33;;;;;;;32.63;20.97;;;;;;;;;;5023168;28;20177;-53
2024/03/06 09:52:00;;;;;;;31.90;21.67;;;;;;;;;;5015758;28;20685;-54
2024/03/06 09:54:27;;;;;;;29.57;20.90;;;;;;;;;;5015512;28;20162;-53
2024/03/06 09:56:55;;;;;;;30.00;21.20;;;;;;;;;;5016020;28;20206;-53
2024/03/06 09:59:21;;;;;;;29.97;21.00;;;;;;;;;;5016799;28;20602;-53
2024/03/06 10:01:54;;;;;;;32.17;21.33;;;;;;;;;;5016092;28;20197;-54
2024/03/06 10:04:20;;;;;;;27.03;19.00;;;;;;;;;;5017346;28;20638;-54
2024/03/06 10:06:47;;;;;;;30.20;21.40;;;;;;;;;;5009913;28;20217;-54
2024/03/06 10:09:13;;;;;;;29.87;20.23;;;;;;;;;;5014732;28;20197;-53
2024/03/06 10:11:44;;;;;;;28.80;19.00;;;;;;;;;;5013997;28;20596;-53
2024/03/06 10:14:10;;;;;;;28.13;21.10;;;;;;;;;;5024490;28;20502;-55
2024/03/06 10:16:37;;;;;;;29.77;21.13;;;;;;;;;;5019505;28;20174;-54
2024/03/06 10:19:16;;;;;;;27.53;19.27;;;;;;;;;;5022090;28;20195;-55
2024/03/06 10:21:44;;;;;;;29.37;19.23;;;;;;;;;;5013816;28;20699;-54
2024/03/06 10:24:11;;;;;;;25.57;18.93;;;;;;;;;;5027674;28;20177;-54
2024/03/06 10:26:37;;;;;;;27.67;20.00;;;;;;;;;;5010876;28;20270;-54
2024/03/06 10:29:03;;;;;;;24.83;18.03;;;;;;;;;;5020788;28;20542;-54
2024/03/06 10:31:29;;;;;;;26.73;18.53;;;;;;;;;;5018624;28;20206;-54
2024/03/06 10:33:55;;;;;;;27.13;19.17;;;;;;;;;;5017471;28;20618;-54
2024/03/06 10:36:22;;;;;;;24.40;18.80;;;;;;;;;;5017888;28;20483;-54
2024/03/06 10:38:49;;;;;;;26.87;19.73;;;;;;;;;;5018693;28;20178;-55
2024/03/06 10:41:15;;;;;;;25.10;18.53;;;;;;;;;;5016043;28;20516;-55
2024/03/06 10:43:45;;;;;;;22.97;17.77;;;;;;;;;;5019402;28;20225;-54
2024/03/06 10:46:11;;;;;;;25.20;18.40;;;;;;;;;;5021804;28;20204;-54
2024/03/06 10:48:38;;;;;;;24.70;18.07;;;;;;;;;;5017007;28;20207;-54
2024/03/06 10:51:05;;;;;;;28.57;18.83;;;;;;;;;;5023180;28;20179;-54
2024/03/06 10:53:32;;;;;;;27.40;18.47;;;;;;;;;;5021941;28;20622;-54
2024/03/06 10:55:58;;;;;;;25.73;19.00;;;;;;;;;;5012246;28;20182;-55
2024/03/06 10:58:25;;;;;;;26.07;18.00;;;;;;;;;;5013485;28;20626;-54
2024/03/06 11:00:52;;;;;;;21.33;16.87;;;;;;;;;;5015342;28;20709;-54
2024/03/06 11:03:18;;;;;;;24.47;18.30;;;;;;;;;;5020183;28;20416;-55
2024/03/06 11:05:46;;;;;;;26.00;19.13;;;;;;;;;;5015042;28;20265;-54
2024/03/06 11:08:13;;;;;;;25.57;18.13;;;;;;;;;;5022458;28;20174;-54
2024/03/06 11:10:40;;;;;;;25.67;19.40;;;;;;;;;;5027036;28;20268;-55
2024/03/06 11:13:21;;;;;;;23.77;18.37;;;;;;;;;;5021884;28;20202;-55
2024/03/06 11:15:47;;;;;;;23.63;17.73;;;;;;;;;;5011907;28;20261;-54
2024/03/06 11:18:28;;;;;;;22.23;17.77;;;;;;;;;;5021588;28;20188;-55
2024/03/06 11:21:03;;;;;;;23.03;17.73;;;;;;;;;;5018261;28;20225;-54
2024/03/06 11:23:33;;;;;;;23.77;17.70;;;;;;;;;;5015316;28;20585;-54
2024/03/06 11:26:05;;;;;;;21.97;16.77;;;;;;;;;;5010884;28;20478;-54
2024/03/06 11:28:40;;;;;;;24.10;17.80;;;;;;;;;;5008639;28;20174;-55
2024/03/06 11:31:18;;;;;;;21.90;17.17;;;;;;;;;;5019063;28;20177;-54
2024/03/06 11:33:48;;;;;;;24.83;17.67;;;;;;;;;;5024086;28;20161;-51
2024/03/06 11:36:21;;;;;;;24.00;16.57;;;;;;;;;;5020910;28;20231;-53
2024/03/06 11:38:58;;;;;;;22.10;16.70;;;;;;;;;;5026267;28;20642;-52
2024/03/06 11:41:25;;;;;;;25.03;17.33;;;;;;;;;;5014857;28;20664;-52
2024/03/06 11:43:53;;;;;;;24.73;18.07;;;;;;;;;;5023709;28;20515;-51
2024/03/06 11:46:19;;;;;;;23.97;16.33;;;;;;;;;;5012624;28;20337;-53
2024/03/06 11:48:52;;;;;;;22.73;17.53;;;;;;;;;;5026420;28;20184;-52
2024/03/06 11:51:18;;;;;;;22.17;17.47;;;;;;;;;;5018427;28;20166;-51
2024/03/06 11:53:45;;;;;;;21.93;16.07;;;;;;;;;;5026625;28;20190;-51
2024/03/06 11:56:11;;;;;;;21.00;16.73;;;;;;;;;;5018043;28;20217;-52
2024/03/06 11:58:37;;;;;;;21.37;16.70;;;;;;;;;;5028587;28;20311;-52
2024/03/06 12:01:04;;;;;;;20.73;16.30;;;;;;;;;;5022748;28;20178;-53
2024/03/06 12:03:30;;;;;;;23.70;16.97;;;;;;;;;;5023733;28;20189;-52
2024/03/06 12:05:56;;;;;;;20.97;16.33;;;;;;;;;;5019782;28;20634;-54
2024/03/06 12:08:23;;;;;;;21.73;15.77;;;;;;;;;;5021297;28;20183;-54
2024/03/06 12:10:49;;;;;;;20.37;15.53;;;;;;;;;;5018013;28;20253;-52
2024/03/06 12:13:15;;;;;;;20.60;15.57;;;;;;;;;;5018959;28;20269;-54
2024/03/06 12:15:45;;;;;;;19.00;15.47;;;;;;;;;;5021936;28;20174;-53
2024/03/06 12:18:11;;;;;;;21.43;15.67;;;;;;;;;;5018835;28;20170;-53
2024/03/06 12:20:45;;;;;;;21.37;16.93;;;;;;;;;;5024440;28;20693;-52
2024/03/06 12:23:20;;;;;;;20.67;15.50;;;;;;;;;;5029205;28;20280;-54
2024/03/06 12:25:46;;;;;;;21.00;14.83;;;;;;;;;;5022730;28;20177;-53
2024/03/06 12:28:12;;;;;;;20.63;15.37;;;;;;;;;;5020469;28;20173;-53
2024/03/06 12:30:42;;;;;;;19.70;14.70;;;;;;;;;;5020537;28;20539;-52
2024/03/06 12:33:09;;;;;;;19.20;15.47;;;;;;;;;;5023621;28;20184;-53
2024/03/06 12:35:35;;;;;;;17.63;14.40;;;;;;;;;;5023366;28;20221;-53
2024/03/06 12:38:11;;;;;;;19.17;14.13;;;;;;;;;;5016450;28;20220;-53
2024/03/06 12:40:37;;;;;;;16.33;13.30;;;;;;;;;;5023958;28;20179;-53
2024/03/06 12:43:04;;;;;;;15.90;13.33;;;;;;;;;;5020356;28;20205;-54
2024/03/06 12:45:30;;;;;;;17.40;13.57;;;;;;;;;;5013155;28;20178;-53
2024/03/06 12:47:56;;;;;;;16.00;13.07;;;;;;;;;;5024729;28;20212;-52
2024/03/06 12:50:22;;;;;;;16.20;12.33;;;;;;;;;;5028695;28;20215;-52
2024/03/06 12:52:48;;;;;;;14.90;11.87;;;;;;;;;;5023544;28;20186;-53
2024/03/06 12:55:14;;;;;;;14.87;12.77;;;;;;;;;;5024426;28;20324;-53
2024/03/06 12:57:40;;;;;;;15.80;12.93;;;;;;;;;;5024814;28;20174;-54
2024/03/06 13:00:13;;;;;;;15.40;11.93;;;;;;;;;;5020988;28;20622;-53
2024/03/06 13:02:40;;;;;;;14.53;12.50;;;;;;;;;;5024106;28;20757;-54
2024/03/06 13:05:06;;;;;;;13.97;11.77;;;;;;;;;;5028721;28;20630;-53
2024/03/06 13:07:33;;;;;;;18.00;12.97;;;;;;;;;;5019300;28;20245;-54
2024/03/06 13:09:59;;;;;;;16.63;13.63;;;;;;;;;;5015826;28;20419;-54
2024/03/06 13:12:25;;;;;;;17.37;13.17;;;;;;;;;;5022709;28;20237;-55
2024/03/06 13:14:51;;;;;;;13.67;12.27;;;;;;;;;;5027158;28;20776;-54
2024/03/06 13:17:18;;;;;;;15.37;12.53;;;;;;;;;;5016468;28;20603;-54
2024/03/06 13:19:44;;;;;;;14.50;12.27;;;;;;;;;;5029621;28;20167;-54
2024/03/06 13:22:10;;;;;;;16.03;11.93;;;;;;;;;;5023407;28;20186;-52
2024/03/06 13:24:36;;;;;;;16.00;11.77;;;;;;;;;;5015887;28;20539;-53
2024/03/06 13:27:03;;;;;;;14.17;11.40;;;;;;;;;;5011139;28;20614;-54
2024/03/06 13:29:29;;;;;;;14.43;11.70;;;;;;;;;;5016821;28;20241;-55
2024/03/06 13:31:55;;;;;;;14.73;11.40;;;;;;;;;;5025356;28;20182;-55
2024/03/06 13:34:21;;;;;;;14.20;11.43;;;;;;;;;;5011192;28;20185;-53
2024/03/06 13:36:47;;;;;;;13.60;11.00;;;;;;;;;;5014193;28;20170;-53
2024/03/06 13:39:14;;;;;;;16.67;12.23;;;;;;;;;;5028143;28;20269;-53
2024/03/06 13:41:40;;;;;;;16.00;10.63;;;;;;;;;;5021874;28;20639;-55
2024/03/06 13:44:07;;;;;;;15.23;11.43;;;;;;;;;;5014488;28;20308;-52
2024/03/06 13:46:33;;;;;;;13.90;10.53;;;;;;;;;;5011741;28;20197;-52
2024/03/06 13:49:00;;;;;;;12.47;9.93;;;;;;;;;;5017101;28;20171;-51
2024/03/06 13:51:26;;;;;;;11.07;9.03;;;;;;;;;;5010633;28;20242;-54
2024/03/06 13:53:52;;;;;;;13.40;11.00;;;;;;;;;;5018459;28;20188;-52
2024/03/06 13:56:18;;;;;;;11.73;9.73;;;;;;;;;;5013948;28;20196;-53
2024/03/06 13:58:44;;;;;;;11.77;8.90;;;;;;;;;;5027741;28;20186;-53
2024/03/06 14:01:10;;;;;;;11.87;8.67;;;;;;;;;;5027299;28;20170;-53
2024/03/06 14:03:37;;;;;;;12.23;8.27;;;;;;;;;;5015805;28;20196;-53
2024/03/06 14:06:04;;;;;;;9.93;8.77;;;;;;;;;;5027059;28;20531;-54
2024/03/06 14:08:30;;;;;;;12.00;9.23;;;;;;;;;;5015979;28;20258;-53
2024/03/06 14:10:56;;;;;;;11.30;9.17;;;;;;;;;;5023679;28;20694;-53
2024/03/06 14:13:22;;;;;;;12.30;8.73;;;;;;;;;;5026857;28;20220;-53
2024/03/06 14:15:49;;;;;;;11.07;9.73;;;;;;;;;;5029007;28;20166;-53
2024/03/06 14:18:15;;;;;;;11.13;9.37;;;;;;;;;;5028417;28;20182;-53
2024/03/06 14:20:42;;;;;;;12.77;9.47;;;;;;;;;;5016096;28;20230;-53
2024/03/06 14:23:08;;;;;;;11.07;9.17;;;;;;;;;;5012436;28;20210;-53
2024/03/06 14:25:36;;;;;;;11.23;9.13;;;;;;;;;;5012779;28;20187;-53